sensor_id;sensor_type;location;lat;lon;timestamp;pressure;altitude;pressure_sealevel;temperature;humidity
55914;BME280;58179;48.776;9.124;2022-12-10T00:01:32;96108.44;;;-0.26;100.00
55914;BME280;58179;48.776;9.124;2022-12-10T00:03:59;96106.66;;;-0.26;100.00
55914;BME280;58179;48.776;9.124;2022-12-10T00:06:28;96107.44;;;-0.25;100.00
55914;BME280;58179;48.776;9.124;2022-12-10T00:08:55;96106.66;;;-0.26;100.00
55914;BME280;58179;48.776;9.124;2022-12-10T00:11:23;96110.63;;;-0.23;100.00
55914;BME280;58179;48.776;9.124;2022-12-10T00:13:50;96109.84;;;-0.24;100.00
55914;BME280;58179;48.776;9.124;2022-12-10T00:16:19;96115.03;;;-0.24;100.00
55914;BME280;58179;48.776;9.124;2022-12-10T00:18:46;96116.84;;;-0.24;100.00
55914;BME280;58179;48.776;9.124;2022-12-10T00:21:15;96122.84;;;-0.24;100.00
55914;BME280;58179;48.776;9.124;2022-12-10T00:23:42;96120.25;;;-0.24;100.00
55914;BME280;58179;48.776;9.124;2022-12-10T00:26:11;96126.25;;;-0.23;100.00
55914;BME280;58179;48.776;9.124;2022-12-10T00:28:38;96124.66;;;-0.24;100.00
55914;BME280;58179;48.776;9.124;2022-12-10T00:31:07;96116.84;;;-0.24;100.00
55914;BME280;58179;48.776;9.124;2022-12-10T00:33:33;96115.03;;;-0.24;100.00
55914;BME280;58179;48.776;9.124;2022-12-10T00:36:04;96108.03;;;-0.23;100.00
55914;BME280;58179;48.776;9.124;2022-12-10T00:38:30;96110.63;;;-0.23;100.00
55914;BME280;58179;48.776;9.124;2022-12-10T00:40:56;96105.66;;;-0.25;100.00
55914;BME280;58179;48.776;9.124;2022-12-10T00:43:22;96112.00;;;-0.21;100.00
55914;BME280;58179;48.776;9.124;2022-12-10T00:45:49;96112.59;;;-0.19;100.00
55914;BME280;58179;48.776;9.124;2022-12-10T00:48:15;96108.59;;;-0.21;100.00
55914;BME280;58179;48.776;9.124;2022-12-10T00:50:41;96112.19;;;-0.22;100.00
55914;BME280;58179;48.776;9.124;2022-12-10T00:53:07;96102.03;;;-0.24;100.00
55914;BME280;58179;48.776;9.124;2022-12-10T00:55:33;96113.25;;;-0.23;100.00
55914;BME280;58179;48.776;9.124;2022-12-10T00:57:59;96119.25;;;-0.23;100.00
55914;BME280;58179;48.776;9.124;2022-12-10T01:00:25;96121.84;;;-0.23;100.00
55914;BME280;58179;48.776;9.124;2022-12-10T01:02:54;96118.19;;;-0.22;100.00
55914;BME280;58179;48.776;9.124;2022-12-10T01:05:19;96126.25;;;-0.23;100.00
55914;BME280;58179;48.776;9.124;2022-12-10T01:07:45;96128.84;;;-0.23;100.00
55914;BME280;58179;48.776;9.124;2022-12-10T01:10:11;96130.84;;;-0.25;100.00
55914;BME280;58179;48.776;9.124;2022-12-10T01:12:37;96140.25;;;-0.24;100.00
55914;BME280;58179;48.776;9.124;2022-12-10T01:15:04;96142.06;;;-0.25;100.00
55914;BME280;58179;48.776;9.124;2022-12-10T01:17:30;96140.03;;;-0.23;100.00
55914;BME280;58179;48.776;9.124;2022-12-10T01:19:58;96141.84;;;-0.23;100.00
55914;BME280;58179;48.776;9.124;2022-12-10T01:22:23;96144.44;;;-0.23;100.00
55914;BME280;58179;48.776;9.124;2022-12-10T01:24:49;96142.84;;;-0.24;100.00
55914;BME280;58179;48.776;9.124;2022-12-10T01:27:15;96151.66;;;-0.25;100.00
55914;BME280;58179;48.776;9.124;2022-12-10T01:29:41;96161.84;;;-0.24;100.00
55914;BME280;58179;48.776;9.124;2022-12-10T01:32:07;96162.84;;;-0.25;100.00
55914;BME280;58179;48.776;9.124;2022-12-10T01:34:33;96156.06;;;-0.26;100.00
55914;BME280;58179;48.776;9.124;2022-12-10T01:37:00;96169.84;;;-0.25;100.00
55914;BME280;58179;48.776;9.124;2022-12-10T01:39:27;96170.44;;;-0.23;100.00
55914;BME280;58179;48.776;9.124;2022-12-10T01:41:55;96172.25;;;-0.24;100.00
55914;BME280;58179;48.776;9.124;2022-12-10T01:45:10;96173.84;;;-0.23;100.00
55914;BME280;58179;48.776;9.124;2022-12-10T01:47:37;96171.25;;;-0.23;100.00
55914;BME280;58179;48.776;9.124;2022-12-10T01:50:05;96177.22;;;-0.22;100.00
55914;BME280;58179;48.776;9.124;2022-12-10T01:52:33;96173.84;;;-0.23;100.00
55914;BME280;58179;48.776;9.124;2022-12-10T01:54:59;96176.44;;;-0.23;100.00
55914;BME280;58179;48.776;9.124;2022-12-10T01:57:27;96172.25;;;-0.24;100.00
55914;BME280;58179;48.776;9.124;2022-12-10T01:59:56;96171.25;;;-0.23;100.00
55914;BME280;58179;48.776;9.124;2022-12-10T02:02:41;96171.44;;;-0.24;100.00
55914;BME280;58179;48.776;9.124;2022-12-10T02:05:18;96185.25;;;-0.24;100.00
55914;BME280;58179;48.776;9.124;2022-12-10T02:07:59;96173.25;;;-0.25;100.00
55914;BME280;58179;48.776;9.124;2022-12-10T02:10:46;96170.66;;;-0.25;100.00
55914;BME280;58179;48.776;9.124;2022-12-10T02:13:28;96169.84;;;-0.25;100.00
55914;BME280;58179;48.776;9.124;2022-12-10T02:16:02;96174.06;;;-0.24;100.00
55914;BME280;58179;48.776;9.124;2022-12-10T02:18:35;96175.84;;;-0.25;100.00
55914;BME280;58179;48.776;9.124;2022-12-10T02:21:06;96171.66;;;-0.26;100.00
55914;BME280;58179;48.776;9.124;2022-12-10T02:23:38;96168.47;;;-0.28;100.00
55914;BME280;58179;48.776;9.124;2022-12-10T02:26:13;96178.72;;;-0.33;100.00
55914;BME280;58179;48.776;9.124;2022-12-10T02:28:47;96162.53;;;-0.35;100.00
55914;BME280;58179;48.776;9.124;2022-12-10T02:31:19;96156.31;;;-0.34;100.00
55914;BME280;58179;48.776;9.124;2022-12-10T02:33:50;96167.50;;;-0.33;100.00
55914;BME280;58179;48.776;9.124;2022-12-10T02:36:18;96157.13;;;-0.33;100.00
55914;BME280;58179;48.776;9.124;2022-12-10T02:38:48;96152.91;;;-0.34;100.00
55914;BME280;58179;48.776;9.124;2022-12-10T02:41:22;96151.31;;;-0.35;100.00
55914;BME280;58179;48.776;9.124;2022-12-10T02:43:52;96147.72;;;-0.34;100.00
55914;BME280;58179;48.776;9.124;2022-12-10T02:46:22;96146.72;;;-0.33;100.00
55914;BME280;58179;48.776;9.124;2022-12-10T02:48:49;96137.91;;;-0.32;100.00
55914;BME280;58179;48.776;9.124;2022-12-10T02:51:16;96138.13;;;-0.34;100.00
55914;BME280;58179;48.776;9.124;2022-12-10T02:53:43;96138.53;;;-0.37;100.00
55914;BME280;58179;48.776;9.124;2022-12-10T02:56:17;96130.72;;;-0.37;100.00
55914;BME280;58179;48.776;9.124;2022-12-10T02:58:57;96124.97;;;-0.39;100.00
55914;BME280;58179;48.776;9.124;2022-12-10T03:01:32;96132.38;;;-0.43;100.00
55914;BME280;58179;48.776;9.124;2022-12-10T03:04:04;96132.38;;;-0.43;100.00
55914;BME280;58179;48.776;9.124;2022-12-10T03:06:36;96133.41;;;-0.44;100.00
55914;BME280;58179;48.776;9.124;2022-12-10T03:09:06;96136.19;;;-0.45;100.00
55914;BME280;58179;48.776;9.124;2022-12-10T03:11:33;96129.03;;;-0.50;100.00
55914;BME280;58179;48.776;9.124;2022-12-10T03:14:02;96124.84;;;-0.51;100.00
55914;BME280;58179;48.776;9.124;2022-12-10T03:16:37;96136.84;;;-0.50;100.00
55914;BME280;58179;48.776;9.124;2022-12-10T03:19:10;96141.03;;;-0.49;100.00
55914;BME280;58179;48.776;9.124;2022-12-10T03:21:38;96136.44;;;-0.47;100.00
55914;BME280;58179;48.776;9.124;2022-12-10T03:24:07;96137.78;;;-0.44;100.00
55914;BME280;58179;48.776;9.124;2022-12-10T03:26:33;96130.78;;;-0.44;100.00
55914;BME280;58179;48.776;9.124;2022-12-10T03:29:03;96129.19;;;-0.45;100.00
55914;BME280;58179;48.776;9.124;2022-12-10T03:31:34;96109.44;;;-0.46;100.00
55914;BME280;58179;48.776;9.124;2022-12-10T03:34:02;96114.63;;;-0.46;100.00
55914;BME280;58179;48.776;9.124;2022-12-10T03:36:30;96118.25;;;-0.47;100.00
55914;BME280;58179;48.776;9.124;2022-12-10T03:38:56;96123.44;;;-0.47;100.00
55914;BME280;58179;48.776;9.124;2022-12-10T03:41:23;96120.84;;;-0.47;100.00
55914;BME280;58179;48.776;9.124;2022-12-10T03:43:53;96116.66;;;-0.48;100.00
55914;BME280;58179;48.776;9.124;2022-12-10T03:46:20;96124.66;;;-0.49;100.00
55914;BME280;58179;48.776;9.124;2022-12-10T03:48:48;96133.84;;;-0.47;100.00
55914;BME280;58179;48.776;9.124;2022-12-10T03:51:14;96139.19;;;-0.42;100.00
55914;BME280;58179;48.776;9.124;2022-12-10T03:53:40;96135.00;;;-0.43;100.00
55914;BME280;58179;48.776;9.124;2022-12-10T03:56:06;96142.78;;;-0.43;100.00
55914;BME280;58179;48.776;9.124;2022-12-10T03:58:32;96149.00;;;-0.44;100.00
55914;BME280;58179;48.776;9.124;2022-12-10T04:00:58;96160.19;;;-0.43;100.00
55914;BME280;58179;48.776;9.124;2022-12-10T04:03:24;96158.59;;;-0.44;100.00
55914;BME280;58179;48.776;9.124;2022-12-10T04:05:52;96160.38;;;-0.45;100.00
55914;BME280;58179;48.776;9.124;2022-12-10T04:08:18;96156.78;;;-0.44;100.00
55914;BME280;58179;48.776;9.124;2022-12-10T04:10:44;96157.00;;;-0.45;100.00
55914;BME280;58179;48.776;9.124;2022-12-10T04:13:09;96157.22;;;-0.47;100.00
55914;BME280;58179;48.776;9.124;2022-12-10T04:15:56;96165.03;;;-0.47;100.00
55914;BME280;58179;48.776;9.124;2022-12-10T04:18:40;96164.22;;;-0.47;100.00
55914;BME280;58179;48.776;9.124;2022-12-10T04:21:07;96160.84;;;-0.48;100.00
55914;BME280;58179;48.776;9.124;2022-12-10T04:23:51;96163.44;;;-0.48;100.00
55914;BME280;58179;48.776;9.124;2022-12-10T04:26:36;96172.03;;;-0.47;100.00
55914;BME280;58179;48.776;9.124;2022-12-10T04:29:17;96169.44;;;-0.47;100.00
55914;BME280;58179;48.776;9.124;2022-12-10T04:31:43;96166.81;;;-0.47;100.00
55914;BME280;58179;48.776;9.124;2022-12-10T04:34:09;96181.41;;;-0.46;100.00
55914;BME280;58179;48.776;9.124;2022-12-10T04:36:37;96185.03;;;-0.47;100.00
55914;BME280;58179;48.776;9.124;2022-12-10T04:39:03;96170.22;;;-0.47;100.00
55914;BME280;58179;48.776;9.124;2022-12-10T04:41:29;96174.81;;;-0.49;100.00
55914;BME280;58179;48.776;9.124;2022-12-10T04:43:55;96176.63;;;-0.49;100.00
55914;BME280;58179;48.776;9.124;2022-12-10T04:46:21;96174.63;;;-0.47;100.00
55914;BME280;58179;48.776;9.124;2022-12-10T04:48:47;96178.22;;;-0.48;100.00
55914;BME280;58179;48.776;9.124;2022-12-10T04:51:13;96176.63;;;-0.49;100.00
55914;BME280;58179;48.776;9.124;2022-12-10T04:53:40;96180.22;;;-0.50;100.00
55914;BME280;58179;48.776;9.124;2022-12-10T04:56:07;96179.03;;;-0.48;100.00
55914;BME280;58179;48.776;9.124;2022-12-10T04:58:33;96177.44;;;-0.49;100.00
55914;BME280;58179;48.776;9.124;2022-12-10T05:01:02;96178.81;;;-0.46;100.00
55914;BME280;58179;48.776;9.124;2022-12-10T05:03:28;96176.63;;;-0.49;100.00
55914;BME280;58179;48.776;9.124;2022-12-10T05:05:54;96177.84;;;-0.52;100.00
55914;BME280;58179;48.776;9.124;2022-12-10T05:08:20;96169.25;;;-0.52;100.00
55914;BME280;58179;48.776;9.124;2022-12-10T05:10:47;96172.06;;;-0.54;100.00
55914;BME280;58179;48.776;9.124;2022-12-10T05:13:13;96171.28;;;-0.54;100.00
55914;BME280;58179;48.776;9.124;2022-12-10T05:15:39;96176.47;;;-0.54;100.00
55914;BME280;58179;48.776;9.124;2022-12-10T05:18:05;96174.69;;;-0.54;100.00
55914;BME280;58179;48.776;9.124;2022-12-10T05:20:31;96173.69;;;-0.53;100.00
55914;BME280;58179;48.776;9.124;2022-12-10T05:22:57;96177.63;;;-0.50;100.00
55914;BME280;58179;48.776;9.124;2022-12-10T05:25:41;96177.28;;;-0.54;100.00
55914;BME280;58179;48.776;9.124;2022-12-10T05:28:19;96180.88;;;-0.55;100.00
55914;BME280;58179;48.776;9.124;2022-12-10T05:30:45;96182.47;;;-0.54;100.00
55914;BME280;58179;48.776;9.124;2022-12-10T05:33:11;96177.28;;;-0.54;100.00
55914;BME280;58179;48.776;9.124;2022-12-10T05:35:37;96178.06;;;-0.53;100.00
55914;BME280;58179;48.776;9.124;2022-12-10T05:38:04;96191.06;;;-0.53;100.00
55914;BME280;58179;48.776;9.124;2022-12-10T05:40:33;96186.06;;;-0.55;100.00
55914;BME280;58179;48.776;9.124;2022-12-10T05:42:59;96191.06;;;-0.53;100.00
55914;BME280;58179;48.776;9.124;2022-12-10T05:45:26;96192.88;;;-0.54;100.00
55914;BME280;58179;48.776;9.124;2022-12-10T05:47:52;96185.28;;;-0.55;100.00
55914;BME280;58179;48.776;9.124;2022-12-10T05:50:18;96188.66;;;-0.55;100.00
55914;BME280;58179;48.776;9.124;2022-12-10T05:52:44;96189.69;;;-0.56;100.00
55914;BME280;58179;48.776;9.124;2022-12-10T05:55:10;96194.06;;;-0.56;100.00
55914;BME280;58179;48.776;9.124;2022-12-10T05:57:36;96194.47;;;-0.59;100.00
55914;BME280;58179;48.776;9.124;2022-12-10T06:00:04;96196.28;;;-0.60;100.00
55914;BME280;58179;48.776;9.124;2022-12-10T06:02:32;96195.66;;;-0.55;100.00
55914;BME280;58179;48.776;9.124;2022-12-10T06:04:58;96197.72;;;-0.64;100.00
55914;BME280;58179;48.776;9.124;2022-12-10T06:07:24;96206.13;;;-0.62;100.00
55914;BME280;58179;48.776;9.124;2022-12-10T06:09:50;96212.50;;;-0.64;100.00
55914;BME280;58179;48.776;9.124;2022-12-10T06:12:16;96213.50;;;-0.65;100.00
55914;BME280;58179;48.776;9.124;2022-12-10T06:14:41;96223.13;;;-0.66;100.00
55914;BME280;58179;48.776;9.124;2022-12-10T06:17:07;96230.09;;;-0.66;100.00
55914;BME280;58179;48.776;9.124;2022-12-10T06:19:35;96225.34;;;-0.69;100.00
55914;BME280;58179;48.776;9.124;2022-12-10T06:22:01;96227.16;;;-0.70;100.00
55914;BME280;58179;48.776;9.124;2022-12-10T06:24:27;96226.94;;;-0.68;100.00
55914;BME280;58179;48.776;9.124;2022-12-10T06:26:54;96229.09;;;-0.65;100.00
55914;BME280;58179;48.776;9.124;2022-12-10T06:29:20;96233.91;;;-0.62;100.00
55914;BME280;58179;48.776;9.124;2022-12-10T06:31:46;96222.13;;;-0.65;100.00
55914;BME280;58179;48.776;9.124;2022-12-10T06:34:11;96235.31;;;-0.66;100.00
55914;BME280;58179;48.776;9.124;2022-12-10T06:36:39;96233.50;;;-0.66;100.00
55914;BME280;58179;48.776;9.124;2022-12-10T06:39:05;96231.72;;;-0.65;100.00
55914;BME280;58179;48.776;9.124;2022-12-10T06:41:30;96235.91;;;-0.64;100.00
55914;BME280;58179;48.776;9.124;2022-12-10T06:43:56;96243.69;;;-0.64;100.00
55914;BME280;58179;48.776;9.124;2022-12-10T06:46:25;96253.88;;;-0.63;100.00
55914;BME280;58179;48.776;9.124;2022-12-10T06:48:52;96257.28;;;-0.62;100.00
55914;BME280;58179;48.776;9.124;2022-12-10T06:51:18;96251.28;;;-0.63;100.00
55914;BME280;58179;48.776;9.124;2022-12-10T06:53:46;96253.88;;;-0.63;100.00
55914;BME280;58179;48.776;9.124;2022-12-10T06:56:15;96257.28;;;-0.62;100.00
55914;BME280;58179;48.776;9.124;2022-12-10T06:58:42;96248.91;;;-0.64;100.00
55914;BME280;58179;48.776;9.124;2022-12-10T07:01:10;96245.50;;;-0.65;100.00
55914;BME280;58179;48.776;9.124;2022-12-10T07:03:36;96255.09;;;-0.65;100.00
55914;BME280;58179;48.776;9.124;2022-12-10T07:06:04;96249.09;;;-0.66;100.00
55914;BME280;58179;48.776;9.124;2022-12-10T07:08:30;96254.69;;;-0.62;100.00
55914;BME280;58179;48.776;9.124;2022-12-10T07:10:58;96251.50;;;-0.64;100.00
55914;BME280;58179;48.776;9.124;2022-12-10T07:13:25;96250.50;;;-0.63;100.00
55914;BME280;58179;48.776;9.124;2022-12-10T07:15:50;96251.69;;;-0.66;100.00
55914;BME280;58179;48.776;9.124;2022-12-10T07:18:16;96247.94;;;-0.70;100.00
55914;BME280;58179;48.776;9.124;2022-12-10T07:20:42;96249.72;;;-0.70;100.00
55914;BME280;58179;48.776;9.124;2022-12-10T07:23:08;96259.31;;;-0.71;100.00
55914;BME280;58179;48.776;9.124;2022-12-10T07:25:34;96266.13;;;-0.70;100.00
55914;BME280;58179;48.776;9.124;2022-12-10T07:28:01;96270.31;;;-0.69;100.00
55914;BME280;58179;48.776;9.124;2022-12-10T07:30:27;96275.28;;;-0.67;100.00
55914;BME280;58179;48.776;9.124;2022-12-10T07:32:53;96269.09;;;-0.66;100.00
55914;BME280;58179;48.776;9.124;2022-12-10T07:35:19;96273.88;;;-0.63;100.00
55914;BME280;58179;48.776;9.124;2022-12-10T07:37:45;96281.69;;;-0.63;100.00
55914;BME280;58179;48.776;9.124;2022-12-10T07:40:11;96286.03;;;-0.57;100.00
55914;BME280;58179;48.776;9.124;2022-12-10T07:42:37;96286.25;;;-0.59;100.00
55914;BME280;58179;48.776;9.124;2022-12-10T07:45:05;96294.63;;;-0.57;100.00
55914;BME280;58179;48.776;9.124;2022-12-10T07:47:34;96283.44;;;-0.57;100.00
55914;BME280;58179;48.776;9.124;2022-12-10T07:50:00;96290.22;;;-0.56;100.00
55914;BME280;58179;48.776;9.124;2022-12-10T07:52:26;96292.44;;;-0.53;100.00
55914;BME280;58179;48.776;9.124;2022-12-10T07:54:52;96287.00;;;-0.52;100.00
55914;BME280;58179;48.776;9.124;2022-12-10T07:57:18;96294.38;;;-0.49;100.00
55914;BME280;58179;48.776;9.124;2022-12-10T07:59:44;96292.16;;;-0.45;100.00
55914;BME280;58179;48.776;9.124;2022-12-10T08:02:11;96294.75;;;-0.45;100.00
55914;BME280;58179;48.776;9.124;2022-12-10T08:04:37;96300.19;;;-0.47;100.00
55914;BME280;58179;48.776;9.124;2022-12-10T08:07:03;96303.94;;;-0.43;100.00
55914;BME280;58179;48.776;9.124;2022-12-10T08:09:29;96297.97;;;-0.43;100.00
55914;BME280;58179;48.776;9.124;2022-12-10T08:11:55;96298.75;;;-0.43;100.00
55914;BME280;58179;48.776;9.124;2022-12-10T08:14:21;96304.56;;;-0.41;100.00
55914;BME280;58179;48.776;9.124;2022-12-10T08:16:47;96298.16;;;-0.38;100.00
55914;BME280;58179;48.776;9.124;2022-12-10T08:19:14;96306.09;;;-0.33;100.00
55914;BME280;58179;48.776;9.124;2022-12-10T08:21:40;96305.91;;;-0.31;100.00
55914;BME280;58179;48.776;9.124;2022-12-10T08:24:06;96307.06;;;-0.27;100.00
55914;BME280;58179;48.776;9.124;2022-12-10T08:26:33;96305.06;;;-0.25;100.00
55914;BME280;58179;48.776;9.124;2022-12-10T08:28:59;96300.66;;;-0.25;100.00
55914;BME280;58179;48.776;9.124;2022-12-10T08:31:27;96299.66;;;-0.24;100.00
55914;BME280;58179;48.776;9.124;2022-12-10T08:33:54;96304.63;;;-0.22;100.00
55914;BME280;58179;48.776;9.124;2022-12-10T08:36:21;96310.63;;;-0.22;100.00
55914;BME280;58179;48.776;9.124;2022-12-10T08:38:47;96309.56;;;-0.14;100.00
55914;BME280;58179;48.776;9.124;2022-12-10T08:41:15;96306.38;;;-0.10;100.00
55914;BME280;58179;48.776;9.124;2022-12-10T08:43:42;96311.78;;;-0.11;100.00
55914;BME280;58179;48.776;9.124;2022-12-10T08:46:08;96317.78;;;-0.11;100.00
55914;BME280;58179;48.776;9.124;2022-12-10T08:48:35;96316.38;;;-0.13;100.00
55914;BME280;58179;48.776;9.124;2022-12-10T08:51:01;96326.56;;;-0.12;100.00
55914;BME280;58179;48.776;9.124;2022-12-10T08:53:29;96322.59;;;-0.14;100.00
55914;BME280;58179;48.776;9.124;2022-12-10T08:55:55;96328.41;;;-0.19;100.00
55914;BME280;58179;48.776;9.124;2022-12-10T08:58:21;96334.78;;;-0.15;100.00
55914;BME280;58179;48.776;9.124;2022-12-10T09:00:48;96337.38;;;-0.08;100.00
55914;BME280;58179;48.776;9.124;2022-12-10T09:03:15;96335.13;;;-0.05;100.00
55914;BME280;58179;48.776;9.124;2022-12-10T09:05:41;96342.31;;;0.00;100.00
55914;BME280;58179;48.776;9.124;2022-12-10T09:08:08;96342.31;;;0.00;100.00
55914;BME280;58179;48.776;9.124;2022-12-10T09:10:36;96343.09;;;0.00;100.00
55914;BME280;58179;48.776;9.124;2022-12-10T09:13:02;96344.50;;;0.03;100.00
55914;BME280;58179;48.776;9.124;2022-12-10T09:15:28;96338.09;;;0.06;100.00
55914;BME280;58179;48.776;9.124;2022-12-10T09:17:54;96348.06;;;0.09;100.00
55914;BME280;58179;48.776;9.124;2022-12-10T09:20:20;96352.88;;;0.05;100.00
55914;BME280;58179;48.776;9.124;2022-12-10T09:22:46;96354.50;;;0.06;100.00
55914;BME280;58179;48.776;9.124;2022-12-10T09:25:12;96349.84;;;0.08;100.00
55914;BME280;58179;48.776;9.124;2022-12-10T09:27:42;96355.66;;;0.10;100.00
55914;BME280;58179;48.776;9.124;2022-12-10T09:30:11;96364.84;;;0.13;100.00
55914;BME280;58179;48.776;9.124;2022-12-10T09:32:37;96367.84;;;0.10;100.00
55914;BME280;58179;48.776;9.124;2022-12-10T09:35:03;96359.25;;;0.09;100.00
55914;BME280;58179;48.776;9.124;2022-12-10T09:37:29;96373.88;;;0.10;100.00
55914;BME280;58179;48.776;9.124;2022-12-10T09:39:55;96366.66;;;0.12;100.00
55914;BME280;58179;48.776;9.124;2022-12-10T09:42:43;96361.25;;;0.14;100.00
55914;BME280;58179;48.776;9.124;2022-12-10T09:45:18;96360.25;;;0.15;100.00
55914;BME280;58179;48.776;9.124;2022-12-10T09:47:56;96364.00;;;0.19;100.00
55914;BME280;58179;48.776;9.124;2022-12-10T09:50:29;96370.38;;;0.23;100.00
55914;BME280;58179;48.776;9.124;2022-12-10T09:52:58;96362.00;;;0.21;100.00
55914;BME280;58179;48.776;9.124;2022-12-10T09:55:32;96365.41;;;0.21;100.00
55914;BME280;58179;48.776;9.124;2022-12-10T09:58:02;96364.16;;;0.24;100.00
55914;BME280;58179;48.776;9.124;2022-12-10T10:00:35;96364.16;;;0.24;100.00
55914;BME280;58179;48.776;9.124;2022-12-10T10:03:02;96367.75;;;0.23;100.00
55914;BME280;58179;48.776;9.124;2022-12-10T10:05:31;96360.75;;;0.23;100.00
55914;BME280;58179;48.776;9.124;2022-12-10T10:08:02;96356.59;;;0.22;100.00
55914;BME280;58179;48.776;9.124;2022-12-10T10:10:31;96375.00;;;0.21;100.00
55914;BME280;58179;48.776;9.124;2022-12-10T10:13:14;96360.19;;;0.21;100.00
55914;BME280;58179;48.776;9.124;2022-12-10T10:15:44;96361.59;;;0.17;100.00
55914;BME280;58179;48.776;9.124;2022-12-10T10:18:17;96363.34;;;0.23;100.00
55914;BME280;58179;48.776;9.124;2022-12-10T10:20:48;96362.16;;;0.26;100.00
55914;BME280;58179;48.776;9.124;2022-12-10T10:23:15;96359.50;;;0.32;100.00
55914;BME280;58179;48.776;9.124;2022-12-10T10:25:42;96356.69;;;0.34;100.00
55914;BME280;58179;48.776;9.124;2022-12-10T10:28:15;96355.25;;;0.38;100.00
55914;BME280;58179;48.776;9.124;2022-12-10T10:30:44;96357.63;;;0.39;100.00
55914;BME280;58179;48.776;9.124;2022-12-10T10:33:13;96354.19;;;0.46;100.00
55914;BME280;58179;48.776;9.124;2022-12-10T10:35:45;96351.81;;;0.44;100.00
55914;BME280;58179;48.776;9.124;2022-12-10T10:38:20;96359.63;;;0.44;100.00
55914;BME280;58179;48.776;9.124;2022-12-10T10:40:50;96355.84;;;0.40;100.00
55914;BME280;58179;48.776;9.124;2022-12-10T10:43:23;96349.22;;;0.44;100.00
55914;BME280;58179;48.776;9.124;2022-12-10T10:45:52;96350.56;;;0.47;100.00
55914;BME280;58179;48.776;9.124;2022-12-10T10:48:22;96351.31;;;0.54;100.00
55914;BME280;58179;48.776;9.124;2022-12-10T10:51:13;96352.13;;;0.54;100.00
55914;BME280;58179;48.776;9.124;2022-12-10T10:53:43;96348.72;;;0.54;100.00
55914;BME280;58179;48.776;9.124;2022-12-10T10:56:13;96360.31;;;0.58;100.00
55914;BME280;58179;48.776;9.124;2022-12-10T10:58:58;96376.03;;;0.69;100.00
55914;BME280;58179;48.776;9.124;2022-12-10T11:01:42;96376.81;;;0.70;100.00
55914;BME280;58179;48.776;9.124;2022-12-10T11:04:09;96378.22;;;0.72;100.00
55914;BME280;58179;48.776;9.124;2022-12-10T11:06:36;96372.69;;;0.62;100.00
55914;BME280;58179;48.776;9.124;2022-12-10T11:09:05;96372.06;;;0.67;100.00
55914;BME280;58179;48.776;9.124;2022-12-10T11:11:34;96374.06;;;0.65;100.00
55914;BME280;58179;48.776;9.124;2022-12-10T11:14:15;96371.47;;;0.65;100.00
55914;BME280;58179;48.776;9.124;2022-12-10T11:16:47;96373.88;;;0.66;100.00
55914;BME280;58179;48.776;9.124;2022-12-10T11:19:21;96379.44;;;0.70;100.00
55914;BME280;58179;48.776;9.124;2022-12-10T11:21:49;96377.94;;;0.81;100.00
55914;BME280;58179;48.776;9.124;2022-12-10T11:24:19;96376.06;;;0.88;100.00
55914;BME280;58179;48.776;9.124;2022-12-10T11:27:02;96383.44;;;0.91;100.00
55914;BME280;58179;48.776;9.124;2022-12-10T11:29:45;96388.03;;;0.95;100.00
55914;BME280;58179;48.776;9.124;2022-12-10T11:32:29;96384.41;;;0.96;100.00
55914;BME280;58179;48.776;9.124;2022-12-10T11:35:11;96383.81;;;0.94;100.00
55914;BME280;58179;48.776;9.124;2022-12-10T11:37:47;96385.63;;;0.94;100.00
55914;BME280;58179;48.776;9.124;2022-12-10T11:40:35;96381.56;;;0.98;100.00
55914;BME280;58179;48.776;9.124;2022-12-10T11:43:29;96380.34;;;1.00;100.00
55914;BME280;58179;48.776;9.124;2022-12-10T11:46:13;96375.53;;;1.04;100.00
55914;BME280;58179;48.776;9.124;2022-12-10T11:49:00;96371.66;;;1.06;100.00
55914;BME280;58179;48.776;9.124;2022-12-10T11:51:35;96375.66;;;1.09;100.00
55914;BME280;58179;48.776;9.124;2022-12-10T11:54:17;96383.06;;;1.12;100.00
55914;BME280;58179;48.776;9.124;2022-12-10T11:56:52;96381.00;;;1.14;100.00
55914;BME280;58179;48.776;9.124;2022-12-10T11:59:31;96378.84;;;1.11;100.00
55914;BME280;58179;48.776;9.124;2022-12-10T12:02:46;96379.28;;;1.08;100.00
55914;BME280;58179;48.776;9.124;2022-12-10T12:05:31;96376.59;;;1.14;100.00
55914;BME280;58179;48.776;9.124;2022-12-10T12:08:09;96368.38;;;1.17;100.00
55914;BME280;58179;48.776;9.124;2022-12-10T12:10:57;96376.97;;;1.18;100.00
55914;BME280;58179;48.776;9.124;2022-12-10T12:13:30;96382.72;;;1.27;100.00
55914;BME280;58179;48.776;9.124;2022-12-10T12:16:04;96380.72;;;1.22;100.00
55914;BME280;58179;48.776;9.124;2022-12-10T12:18:41;96389.00;;;1.19;100.00
55914;BME280;58179;48.776;9.124;2022-12-10T12:21:12;96388.41;;;1.17;100.00
55914;BME280;58179;48.776;9.124;2022-12-10T12:23:47;96390.16;;;1.23;100.00
55914;BME280;58179;48.776;9.124;2022-12-10T12:26:23;96387.13;;;1.26;100.00
55914;BME280;58179;48.776;9.124;2022-12-10T12:28:55;96400.16;;;1.26;100.00
55914;BME280;58179;48.776;9.124;2022-12-10T12:31:30;96407.19;;;1.26;100.00
55914;BME280;58179;48.776;9.124;2022-12-10T12:34:02;96401.16;;;1.25;100.00
55914;BME280;58179;48.776;9.124;2022-12-10T12:36:34;96397.56;;;1.26;100.00
55914;BME280;58179;48.776;9.124;2022-12-10T12:39:06;96389.53;;;1.28;100.00
55914;BME280;58179;48.776;9.124;2022-12-10T12:41:45;96407.91;;;1.33;100.00
55914;BME280;58179;48.776;9.124;2022-12-10T12:44:21;96406.31;;;1.32;100.00
55914;BME280;58179;48.776;9.124;2022-12-10T12:46:50;96410.06;;;1.36;100.00
55914;BME280;58179;48.776;9.124;2022-12-10T12:49:24;96411.44;;;1.38;100.00
55914;BME280;58179;48.776;9.124;2022-12-10T12:51:59;96412.91;;;1.34;100.00
55914;BME280;58179;48.776;9.124;2022-12-10T12:54:26;96415.50;;;1.34;100.00
55914;BME280;58179;48.776;9.124;2022-12-10T12:57:03;96410.50;;;1.33;100.00
55914;BME280;58179;48.776;9.124;2022-12-10T12:59:52;96431.56;;;1.31;100.00
55914;BME280;58179;48.776;9.124;2022-12-10T13:02:44;96424.53;;;1.13;100.00
55914;BME280;58179;48.776;9.124;2022-12-10T13:05:14;96422.19;;;1.05;100.00
55914;BME280;58179;48.776;9.124;2022-12-10T13:07:42;96431.06;;;0.98;100.00